Terminal Aerodrome Forecast
Issued by NWS Buffalo, NY

Home | Current Version | Previous Version | Text Only | Print | Product List | Glossary On
Versions: 1 2 3 4 5 6 7 8 9 10 11 12 13 14 15 16 17 18 19 20 21 22 23 24 25 26 27
000
FTUS41 KBUF 200540
TAFBUF
TAF
KBUF 200540Z 2006/2106 23017G29KT P6SM BKN200 WS020/24055KT
     FM200900 23019G31KT P6SM BKN120 WS020/24055KT
     FM201300 24020G28KT P6SM BKN130
     FM201800 25018G26KT P6SM SCT110
     FM210000 25013KT P6SM SCT200=

USA.gov is the U.S. government's official web portal to all federal, state and local government web resources and services.